Time;durP1;ratioP1;P1;durP2;ratioP2;P2;SDS_P1;SDS_P2;PMS_P1;PMS_P2;Temp;Humidity;BMP_temperature;BMP_pressure;BME280_temperature;BME280_humidity;BME280_pressure;Samples;Min_cycle;Max_cycle;Signal;HPM_P1;HPM_P2
2022/11/17 00:00:18;;;;;;;;;;;;;;;17.79;63.33;97444.16;2094190;28;19923;-51
2022/11/17 00:01:20;;;;;;;;;;;;;;;17.78;63.58;97446.03;2083618;28;19931;-46
2022/11/17 00:02:20;;;;;;;;;;;;;;;17.77;63.50;97451.56;2084207;28;19935;-45
2022/11/17 00:03:22;;;;;;;;;;;;;;;17.78;63.34;97443.34;2081300;28;19924;-45
2022/11/17 00:04:24;;;;;;;;;;;;;;;17.77;63.34;97446.22;2088391;28;19928;-45
2022/11/17 00:05:27;;;;;;;;;;;;;;;17.77;63.34;97454.25;2087738;28;20142;-47
2022/11/17 00:06:27;;;;;;;;;;;;;;;17.78;63.36;97455.91;2085012;28;19929;-46
2022/11/17 00:07:29;;;;;;;;;;;;;;;17.75;63.21;97451.00;2086206;28;19935;-47
2022/11/17 00:08:30;;;;;;;;;;;;;;;17.77;63.28;97456.94;2084760;28;19936;-50
2022/11/17 00:09:31;;;;;;;;;;;;;;;17.75;63.37;97454.50;2083902;28;19931;-47
2022/11/17 00:10:32;;;;;;;;;;;;;;;17.73;63.54;97453.09;2087694;28;19946;-48
2022/11/17 00:14:31;;;;;;;;;;;;;;;17.74;63.36;97449.34;2083605;28;19924;-48
2022/11/17 00:14:35;;;;;;;;;;;;;;;17.73;63.36;97451.22;2084814;28;19928;-49
2022/11/17 00:15:37;;;;;;;;;;;;;;;17.71;63.42;97445.25;2092753;28;19924;-52
2022/11/17 00:16:37;;;;;;;;;;;;;;;17.70;63.44;97445.50;2092725;28;20489;-45
2022/11/17 00:17:39;;;;;;;;;;;;;;;17.71;63.30;97444.44;2091686;28;19960;-50
2022/11/17 00:21:20;;;;;;;;;;;;;;;17.68;63.39;97440.34;2084810;28;20415;-46
2022/11/17 00:22:21;;;;;;;;;;;;;;;17.68;63.51;97442.22;2088231;28;19936;-46
2022/11/17 00:23:22;;;;;;;;;;;;;;;17.67;63.53;97444.06;2085957;28;19920;-47
2022/11/17 00:24:24;;;;;;;;;;;;;;;17.67;63.53;97448.63;2091884;28;19928;-49
2022/11/17 00:25:24;;;;;;;;;;;;;;;17.65;63.52;97444.28;2087917;28;19925;-46
2022/11/17 00:26:27;;;;;;;;;;;;;;;17.64;63.57;97442.66;2084536;28;20431;-48
2022/11/17 00:27:27;;;;;;;;;;;;;;;17.65;63.45;97438.13;2081138;28;19935;-50
2022/11/17 00:28:29;;;;;;;;;;;;;;;17.65;63.41;97444.28;2085311;28;19969;-49
2022/11/17 00:29:30;;;;;;;;;;;;;;;17.63;63.46;97437.50;2084273;28;19947;-47
2022/11/17 00:34:29;;;;;;;;;;;;;;;17.61;63.48;97445.00;2083672;28;19928;-49
2022/11/17 00:35:29;;;;;;;;;;;;;;;17.61;63.59;97442.31;2085678;28;19924;-47
2022/11/17 00:36:32;;;;;;;;;;;;;;;17.60;63.55;97441.47;2083860;28;19925;-51
2022/11/17 00:37:35;;;;;;;;;;;;;;;17.60;63.57;97441.47;2084764;28;20758;-49
2022/11/17 00:38:36;;;;;;;;;;;;;;;17.60;63.59;97444.16;2085431;28;19927;-48
2022/11/17 00:39:37;;;;;;;;;;;;;;;17.60;63.65;97443.34;2086777;28;19934;-49
2022/11/17 00:40:38;;;;;;;;;;;;;;;17.58;63.59;97443.56;2083819;28;20623;-47
2022/11/17 00:41:39;;;;;;;;;;;;;;;17.57;63.51;97441.91;2082779;28;19934;-49
2022/11/17 00:42:40;;;;;;;;;;;;;;;17.56;63.71;97437.59;2085314;28;19924;-46
2022/11/17 00:43:41;;;;;;;;;;;;;;;17.55;63.73;97438.66;2086641;28;19928;-49
2022/11/17 00:44:43;;;;;;;;;;;;;;;17.54;63.56;97434.31;2087465;28;19920;-45
2022/11/17 00:45:44;;;;;;;;;;;;;;;17.54;63.68;97433.53;2088555;28;19929;-45
2022/11/17 00:46:46;;;;;;;;;;;;;;;17.54;63.67;97439.69;2085161;28;19928;-49
2022/11/17 00:47:46;;;;;;;;;;;;;;;17.55;63.61;97437.81;2086367;28;19931;-50
2022/11/17 00:48:48;;;;;;;;;;;;;;;17.54;63.67;97439.69;2082960;28;19967;-49
2022/11/17 00:49:49;;;;;;;;;;;;;;;17.55;63.56;97435.16;2082471;28;20393;-47
2022/11/17 00:50:50;;;;;;;;;;;;;;;17.52;63.66;97444.44;2084175;28;20606;-48
2022/11/17 00:51:53;;;;;;;;;;;;;;;17.52;63.75;97436.41;2083924;28;19942;-47
2022/11/17 00:52:54;;;;;;;;;;;;;;;17.51;63.59;97445.50;2082069;28;19932;-48
2022/11/17 00:53:55;;;;;;;;;;;;;;;17.52;63.58;97447.13;2084896;28;20888;-49
2022/11/17 00:54:56;;;;;;;;;;;;;;;17.53;63.57;97440.75;2081246;28;19924;-49
2022/11/17 00:55:57;;;;;;;;;;;;;;;17.51;63.60;97434.78;2085805;28;19962;-45
2022/11/17 00:56:58;;;;;;;;;;;;;;;17.51;63.70;97442.00;2086501;28;19924;-47
2022/11/17 00:58:00;;;;;;;;;;;;;;;17.50;63.75;97449.25;2085310;28;19920;-46
2022/11/17 00:59:00;;;;;;;;;;;;;;;17.50;63.50;97443.88;2086446;28;19928;-51
2022/11/17 01:00:02;;;;;;;;;;;;;;;17.51;63.71;97433.97;2086861;28;20007;-48
2022/11/17 01:01:03;;;;;;;;;;;;;;;17.48;63.79;97440.59;2085429;28;19928;-45
2022/11/17 01:02:05;;;;;;;;;;;;;;;17.46;63.76;97437.31;2088207;28;20459;-48
2022/11/17 01:03:05;;;;;;;;;;;;;;;17.43;63.62;97437.78;2086806;28;19936;-49
2022/11/17 01:04:07;;;;;;;;;;;;;;;17.43;63.79;97437.78;2084509;28;20413;-47
2022/11/17 01:05:07;;;;;;;;;;;;;;;17.43;63.79;97438.59;2086631;28;20507;-48
2022/11/17 01:06:10;;;;;;;;;;;;;;;17.45;63.68;97443.72;2082862;28;20012;-46
2022/11/17 01:07:13;;;;;;;;;;;;;;;17.46;63.58;97441.88;2081653;28;19924;-49
2022/11/17 01:08:13;;;;;;;;;;;;;;;17.45;63.73;97435.69;2083593;28;19925;-49
2022/11/17 01:09:16;;;;;;;;;;;;;;;17.43;63.63;97432.41;2083542;28;20820;-45
2022/11/17 01:10:17;;;;;;;;;;;;;;;17.43;63.70;97440.44;2087072;28;19928;-47
2022/11/17 01:11:19;;;;;;;;;;;;;;;17.43;63.85;97437.78;2083411;28;20290;-45
2022/11/17 01:12:19;;;;;;;;;;;;;;;17.42;63.75;97436.16;2085272;28;19920;-51
2022/11/17 01:13:21;;;;;;;;;;;;;;;17.40;63.81;97438.22;2086246;28;19934;-48
2022/11/17 01:14:22;;;;;;;;;;;;;;;17.42;63.83;97441.50;2087250;28;19928;-47
2022/11/17 01:15:24;;;;;;;;;;;;;;;17.41;63.55;97440.69;2085749;28;20856;-47
2022/11/17 01:16:24;;;;;;;;;;;;;;;17.40;63.65;97440.91;2084456;28;19961;-46
2022/11/17 01:17:26;;;;;;;;;;;;;;;17.39;63.69;97444.63;2090171;28;20604;-49
2022/11/17 01:18:26;;;;;;;;;;;;;;;17.39;63.85;97439.28;2086225;28;19928;-46
2022/11/17 01:19:28;;;;;;;;;;;;;;;17.39;63.78;97436.59;2086971;28;19935;-47
2022/11/17 01:20:29;;;;;;;;;;;;;;;17.40;63.65;97438.22;2083317;28;20327;-45
2022/11/17 01:21:31;;;;;;;;;;;;;;;17.38;63.61;97435.78;2086982;28;19927;-47
2022/11/17 01:22:33;;;;;;;;;;;;;;;17.40;63.73;97432.88;2085677;28;19920;-49
2022/11/17 01:23:34;;;;;;;;;;;;;;;17.38;63.79;97430.41;2087302;28;19928;-47
2022/11/17 01:24:35;;;;;;;;;;;;;;;17.39;63.72;97431.25;2087434;28;20382;-45
2022/11/17 01:25:37;;;;;;;;;;;;;;;17.38;63.61;97430.41;2084693;28;19928;-52
2022/11/17 01:26:38;;;;;;;;;;;;;;;17.39;63.71;97436.59;2081480;28;19920;-49
2022/11/17 01:27:39;;;;;;;;;;;;;;;17.37;63.78;97430.63;2088571;28;19920;-46
2022/11/17 01:28:40;;;;;;;;;;;;;;;17.35;63.59;97436.19;2086445;28;19931;-50
2022/11/17 01:29:42;;;;;;;;;;;;;;;17.36;63.65;97431.69;2087459;28;19959;-49
2022/11/17 01:30:43;;;;;;;;;;;;;;;17.36;63.76;97442.41;2086998;28;19931;-49
2022/11/17 01:31:45;;;;;;;;;;;;;;;17.35;63.75;97440.75;2086328;28;19920;-51
2022/11/17 01:32:45;;;;;;;;;;;;;;;17.34;63.75;97447.16;2087718;28;20708;-47
2022/11/17 01:33:47;;;;;;;;;;;;;;;17.33;63.85;97448.22;2084840;28;20039;-45
2022/11/17 01:34:48;;;;;;;;;;;;;;;17.31;63.85;97451.09;2086468;28;20441;-49
2022/11/17 01:35:49;;;;;;;;;;;;;;;17.32;63.62;97449.25;2086119;28;19923;-47
2022/11/17 01:38:11;;;;;;;;;;;;;;;17.31;63.83;97443.06;2092109;28;20669;-46
2022/11/17 01:39:12;;;;;;;;;;;;;;;17.32;63.70;97446.56;2094209;28;19924;-47
2022/11/17 01:40:13;;;;;;;;;;;;;;;17.31;63.84;97444.94;2097536;28;19930;-48
2022/11/17 01:41:15;;;;;;;;;;;;;;;17.30;63.81;97445.97;2092909;28;20628;-48
2022/11/17 01:42:18;;;;;;;;;;;;;;;17.28;63.85;97445.38;2093082;28;20534;-45
2022/11/17 01:43:33;;;;;;;;;;;;;;;17.29;63.81;97445.16;2092183;28;20370;-49
2022/11/17 01:44:52;;;;;;;;;;;;;;;17.30;63.87;97448.63;2099116;28;20464;-46
2022/11/17 01:45:53;;;;;;;;;;;;;;;17.29;63.82;97441.66;2094964;28;19920;-47
2022/11/17 01:46:54;;;;;;;;;;;;;;;17.28;63.73;97437.34;2096802;28;19920;-46
2022/11/17 01:47:57;;;;;;;;;;;;;;;17.28;63.73;97437.34;2095730;28;19925;-48
2022/11/17 01:49:00;;;;;;;;;;;;;;;17.29;63.72;97441.66;2096366;28;19930;-46
2022/11/17 01:50:05;;;;;;;;;;;;;;;17.29;63.76;97447.00;2091144;28;19924;-48
2022/11/17 01:51:07;;;;;;;;;;;;;;;17.26;63.81;97437.56;2093971;28;20386;-47
2022/11/17 01:52:09;;;;;;;;;;;;;;;17.25;63.83;97446.66;2091844;28;19931;-49
2022/11/17 01:53:14;;;;;;;;;;;;;;;17.27;63.86;97449.09;2087926;28;20069;-50
2022/11/17 01:54:16;;;;;;;;;;;;;;;17.23;63.95;97447.91;2086427;28;19920;-48
2022/11/17 01:55:19;;;;;;;;;;;;;;;17.23;63.85;97442.56;2086452;28;19935;-46
2022/11/17 01:56:22;;;;;;;;;;;;;;;17.23;63.83;97435.31;2086977;28;20023;-45
2022/11/17 01:57:27;;;;;;;;;;;;;;;17.24;63.81;97446.84;2088343;28;19983;-47
2022/11/17 01:58:30;;;;;;;;;;;;;;;17.20;63.95;97443.81;2089648;28;19935;-48
2022/11/17 01:59:33;;;;;;;;;;;;;;;17.22;63.79;97443.56;2088473;28;20007;-49
2022/11/17 02:00:34;;;;;;;;;;;;;;;17.21;63.86;97434.72;2086332;28;19939;-50
2022/11/17 02:01:54;;;;;;;;;;;;;;;17.21;63.93;97442.75;2086766;28;20635;-46
2022/11/17 02:02:55;;;;;;;;;;;;;;;17.19;63.87;97445.69;2091861;28;19921;-49
2022/11/17 02:03:56;;;;;;;;;;;;;;;17.19;63.84;97443.00;2093868;28;19924;-46
2022/11/17 02:05:01;;;;;;;;;;;;;;;17.19;63.92;97436.84;2090633;28;19931;-47
2022/11/17 02:06:04;;;;;;;;;;;;;;;17.19;63.95;97442.19;2088651;28;20011;-48
2022/11/17 02:07:08;;;;;;;;;;;;;;;17.18;63.85;97444.03;2088372;28;19928;-47
2022/11/17 02:08:10;;;;;;;;;;;;;;;17.20;63.96;97446.50;2086665;28;20613;-50
2022/11/17 02:09:13;;;;;;;;;;;;;;;17.18;63.96;97446.72;2084425;28;19920;-44
2022/11/17 02:10:14;;;;;;;;;;;;;;;17.16;63.93;97440.78;2084029;28;19929;-49
2022/11/17 02:11:17;;;;;;;;;;;;;;;17.16;63.90;97443.44;2086484;28;19924;-48
2022/11/17 02:12:20;;;;;;;;;;;;;;;17.16;63.89;97439.94;2087034;28;19924;-47
2022/11/17 02:13:21;;;;;;;;;;;;;;;17.15;64.11;97439.13;2087278;28;19936;-47
2022/11/17 02:14:23;;;;;;;;;;;;;;;17.13;63.99;97441.22;2084077;28;20381;-47
2022/11/17 02:15:23;;;;;;;;;;;;;;;17.13;63.96;97438.53;2081691;28;20495;-46
2022/11/17 02:16:25;;;;;;;;;;;;;;;17.11;64.03;97432.59;2083527;28;19950;-46
2022/11/17 02:17:28;;;;;;;;;;;;;;;17.12;64.10;97431.53;2087416;28;20313;-49
2022/11/17 02:18:30;;;;;;;;;;;;;;;17.12;64.11;97436.06;2097562;28;20028;-46
2022/11/17 02:19:33;;;;;;;;;;;;;;;17.11;63.94;97435.25;2091455;28;19931;-50
2022/11/17 02:20:44;;;;;;;;;;;;;;;17.12;64.01;97428.84;2086319;28;21123;-45
2022/11/17 02:21:57;;;;;;;;;;;;;;;17.11;63.87;97429.91;2083217;28;20866;-46
2022/11/17 02:23:20;;;;;;;;;;;;;;;17.12;63.91;97426.16;2086784;28;20892;-46
2022/11/17 02:24:23;;;;;;;;;;;;;;;17.09;63.86;97421.25;2088640;28;25074;-48
2022/11/17 02:25:42;;;;;;;;;;;;;;;17.11;63.75;97424.53;2084524;28;19952;-47
2022/11/17 02:26:57;;;;;;;;;;;;;;;17.09;63.98;97423.94;2083930;28;19928;-48
2022/11/17 02:28:04;;;;;;;;;;;;;;;17.10;63.99;97428.25;2086375;28;20722;-48
2022/11/17 02:29:11;;;;;;;;;;;;;;;17.09;63.86;97421.25;2084552;28;19946;-46
2022/11/17 02:30:14;;;;;;;;;;;;;;;17.09;63.94;97426.63;2081011;28;20973;-47
2022/11/17 02:31:19;;;;;;;;;;;;;;;17.09;63.86;97415.91;2084404;28;22781;-48
2022/11/17 02:32:24;;;;;;;;;;;;;;;17.09;63.81;97426.63;2086710;28;19973;-45
2022/11/17 02:33:29;;;;;;;;;;;;;;;17.09;63.96;97420.44;2082903;28;19924;-49
2022/11/17 02:34:34;;;;;;;;;;;;;;;17.08;64.02;97422.31;2081812;28;19934;-46
2022/11/17 02:35:39;;;;;;;;;;;;;;;17.08;63.95;97427.66;2084387;28;19932;-51
2022/11/17 02:36:43;;;;;;;;;;;;;;;17.09;63.83;97431.16;2088999;28;20294;-49
2022/11/17 02:37:49;;;;;;;;;;;;;;;17.09;63.92;97425.81;2093224;28;19920;-48
2022/11/17 02:38:54;;;;;;;;;;;;;;;17.08;63.84;97427.66;2094546;28;20049;-46
2022/11/17 02:39:58;;;;;;;;;;;;;;;17.06;64.01;97420.91;2091893;28;20825;-49
2022/11/17 02:41:03;;;;;;;;;;;;;;;17.07;63.82;97425.19;2093790;28;20298;-50
2022/11/17 02:42:07;;;;;;;;;;;;;;;17.06;63.90;97427.06;2085752;28;19935;-47
2022/11/17 02:44:35;;;;;;;;;;;;;;;17.04;64.06;97423.78;2087412;28;20342;-46
2022/11/17 02:45:38;;;;;;;;;;;;;;;17.04;63.88;97423.78;2090230;28;19924;-46
2022/11/17 02:46:44;;;;;;;;;;;;;;;17.04;63.74;97418.44;2090478;28;20618;-49
2022/11/17 02:47:47;;;;;;;;;;;;;;;17.04;63.97;97423.78;2086501;28;20009;-45
2022/11/17 02:48:52;;;;;;;;;;;;;;;17.04;63.79;97418.44;2084642;28;19925;-49
2022/11/17 02:49:56;;;;;;;;;;;;;;;17.04;63.86;97418.44;2084726;28;19924;-48
2022/11/17 02:50:59;;;;;;;;;;;;;;;17.04;63.83;97413.06;2088776;28;20028;-47
2022/11/17 02:52:01;;;;;;;;;;;;;;;17.03;63.90;97422.16;2088217;28;19925;-48
2022/11/17 02:53:03;;;;;;;;;;;;;;;17.03;63.78;97416.00;2089719;28;20023;-47
2022/11/17 02:54:04;;;;;;;;;;;;;;;17.02;63.92;97412.50;2086668;28;19928;-45
2022/11/17 02:55:06;;;;;;;;;;;;;;;17.02;63.95;97420.53;2086052;28;19991;-48
2022/11/17 02:56:07;;;;;;;;;;;;;;;17.01;63.96;97415.38;2086893;28;19935;-47
2022/11/17 02:57:24;;;;;;;;;;;;;;;17.01;63.96;97410.84;2089823;28;19928;-47
2022/11/17 02:58:26;;;;;;;;;;;;;;;17.00;63.84;97416.44;2088610;28;19928;-46
2022/11/17 02:59:30;;;;;;;;;;;;;;;17.01;63.92;97412.72;2093351;28;19959;-48
2022/11/17 03:00:33;;;;;;;;;;;;;;;17.00;63.98;97414.56;2087286;28;19935;-47
2022/11/17 03:02:02;;;;;;;;;;;;;;;17.00;64.00;97417.25;2092416;28;19920;-48
2022/11/17 03:03:15;;;;;;;;;;;;;;;16.99;63.92;97415.59;2049832;28;20448;-48
2022/11/17 03:04:30;;;;;;;;;;;;;;;16.99;63.81;97407.56;2081799;27;19950;-47
2022/11/17 03:05:34;;;;;;;;;;;;;;;16.98;63.86;97405.94;2094110;28;19973;-46
2022/11/17 03:06:38;;;;;;;;;;;;;;;16.97;63.85;97410.47;2094714;28;19932;-48
2022/11/17 03:07:50;;;;;;;;;;;;;;;16.97;63.93;97404.31;2093844;28;19936;-47
2022/11/17 03:08:55;;;;;;;;;;;;;;;16.97;63.95;97406.97;2097149;28;20166;-47
2022/11/17 03:10:00;;;;;;;;;;;;;;;16.96;64.00;97406.13;2094027;28;19920;-47
2022/11/17 03:11:03;;;;;;;;;;;;;;;16.96;63.81;97408.00;2093015;28;19962;-46
2022/11/17 03:12:08;;;;;;;;;;;;;;;16.96;63.93;97410.69;2090500;28;19928;-46
2022/11/17 03:13:12;;;;;;;;;;;;;;;16.95;63.97;97406.38;2095989;28;19928;-48
2022/11/17 03:14:19;;;;;;;;;;;;;;;16.96;63.95;97408.00;2091423;28;19931;-45
2022/11/17 03:15:23;;;;;;;;;;;;;;;16.94;63.97;97404.75;2096742;28;19920;-45
2022/11/17 03:16:26;;;;;;;;;;;;;;;16.93;63.81;97406.59;2092765;28;20401;-45
2022/11/17 03:17:29;;;;;;;;;;;;;;;16.93;63.88;97409.25;2090790;28;19920;-46
2022/11/17 03:18:35;;;;;;;;;;;;;;;16.92;63.99;97415.69;2093400;28;19990;-45
2022/11/17 03:19:41;;;;;;;;;;;;;;;16.91;64.04;97414.06;2096632;27;19932;-48
2022/11/17 03:20:48;;;;;;;;;;;;;;;16.92;63.99;97414.88;2093117;28;19924;-46
2022/11/17 03:21:54;;;;;;;;;;;;;;;16.92;63.85;97418.34;2093879;28;20331;-46
2022/11/17 03:22:58;;;;;;;;;;;;;;;16.92;63.83;97420.22;2094431;28;19925;-47
2022/11/17 03:24:02;;;;;;;;;;;;;;;16.91;63.80;97414.06;2093065;28;19924;-47
2022/11/17 03:25:05;;;;;;;;;;;;;;;16.91;64.00;97415.88;2091224;28;19939;-45
2022/11/17 03:26:10;;;;;;;;;;;;;;;16.89;63.91;97418.81;2093586;28;19932;-46
2022/11/17 03:27:14;;;;;;;;;;;;;;;16.91;63.95;97415.88;2089094;28;19920;-46
2022/11/17 03:28:18;;;;;;;;;;;;;;;16.88;63.89;97417.19;2090360;28;19987;-47
2022/11/17 03:29:22;;;;;;;;;;;;;;;16.90;64.02;97416.94;2091778;28;19924;-45
2022/11/17 03:30:24;;;;;;;;;;;;;;;16.91;63.99;97423.91;2093127;28;19935;-45
2022/11/17 03:31:27;;;;;;;;;;;;;;;16.88;63.83;97419.84;2094402;28;19924;-46
2022/11/17 03:32:31;;;;;;;;;;;;;;;16.89;63.96;97428.69;2092340;28;19974;-47
2022/11/17 03:33:32;;;;;;;;;;;;;;;16.88;63.89;97425.22;2091688;28;19924;-47
2022/11/17 03:34:37;;;;;;;;;;;;;;;16.87;63.92;97428.91;2091723;27;19935;-45
2022/11/17 03:35:40;;;;;;;;;;;;;;;16.86;64.03;97424.59;2094209;28;19924;-47
2022/11/17 03:36:44;;;;;;;;;;;;;;;16.85;64.04;97430.16;2095186;28;19931;-50
2022/11/17 03:37:48;;;;;;;;;;;;;;;16.85;63.87;97419.47;2096512;28;20047;-47
2022/11/17 03:38:51;;;;;;;;;;;;;;;16.84;64.08;97423.19;2096729;28;20897;-47
2022/11/17 03:39:56;;;;;;;;;;;;;;;16.84;64.02;97426.69;2093912;28;19924;-46
2022/11/17 03:40:59;;;;;;;;;;;;;;;16.84;64.07;97428.53;2095175;28;20027;-46
2022/11/17 03:42:02;;;;;;;;;;;;;;;16.83;64.08;97427.72;2090382;28;19924;-46
2022/11/17 03:43:06;;;;;;;;;;;;;;;16.83;63.99;97426.91;2095727;28;19928;-46
2022/11/17 03:44:06;;;;;;;;;;;;;;;16.82;64.05;97422.56;2096760;27;19927;-45
2022/11/17 03:45:14;;;;;;;;;;;;;;;16.81;64.01;97427.13;2096406;28;19924;-46
2022/11/17 03:46:16;;;;;;;;;;;;;;;16.80;64.07;97421.97;2091103;28;19927;-45
2022/11/17 03:47:19;;;;;;;;;;;;;;;16.81;64.09;97429.78;2096197;28;20642;-47
2022/11/17 03:48:23;;;;;;;;;;;;;;;16.80;63.95;97421.97;2094697;28;19928;-45
2022/11/17 03:49:29;;;;;;;;;;;;;;;16.80;64.05;97427.31;2096578;28;19959;-48
2022/11/17 03:50:32;;;;;;;;;;;;;;;16.81;64.10;97423.63;2092597;28;19930;-45
2022/11/17 03:51:34;;;;;;;;;;;;;;;16.78;64.14;97432.91;2093935;28;19929;-47
2022/11/17 03:52:36;;;;;;;;;;;;;;;16.80;64.13;97430.00;2094411;28;19924;-48
2022/11/17 03:53:38;;;;;;;;;;;;;;;16.80;63.93;97432.69;2096969;28;20097;-48
2022/11/17 03:54:39;;;;;;;;;;;;;;;16.80;63.97;97428.16;2094993;27;19924;-48
2022/11/17 03:55:43;;;;;;;;;;;;;;;16.76;64.15;97424.25;2093260;28;19956;-46
2022/11/17 03:56:48;;;;;;;;;;;;;;;16.78;64.05;97427.56;2093830;28;19928;-45
2022/11/17 03:57:52;;;;;;;;;;;;;;;16.78;64.13;97424.06;2095436;28;20462;-48
2022/11/17 03:58:54;;;;;;;;;;;;;;;16.77;64.07;97431.28;2094149;28;19924;-48
2022/11/17 04:00:01;;;;;;;;;;;;;;;16.76;64.09;97434.97;2094830;27;20598;-47
2022/11/17 04:01:04;;;;;;;;;;;;;;;16.77;64.07;97428.63;2094618;28;19942;-46
2022/11/17 04:02:06;;;;;;;;;;;;;;;16.77;64.02;97433.13;2094395;28;19931;-46
2022/11/17 04:03:06;;;;;;;;;;;;;;;16.74;64.10;97429.84;2094601;28;19927;-46
2022/11/17 04:04:12;;;;;;;;;;;;;;;16.77;64.04;97433.13;2092024;28;19924;-45
2022/11/17 04:05:14;;;;;;;;;;;;;;;16.75;64.02;97428.78;2089236;28;20393;-46
2022/11/17 04:06:16;;;;;;;;;;;;;;;16.75;64.09;97431.47;2094745;28;20002;-45
2022/11/17 04:07:16;;;;;;;;;;;;;;;16.74;64.07;97421.81;2095801;28;19925;-46
2022/11/17 04:08:19;;;;;;;;;;;;;;;16.74;63.96;97427.16;2092446;28;20894;-46
2022/11/17 04:09:19;;;;;;;;;;;;;;;16.74;64.05;97426.31;2096672;28;19920;-45
2022/11/17 04:10:22;;;;;;;;;;;;;;;16.73;64.08;97428.19;2097791;28;20613;-45
2022/11/17 04:16:42;;;;;;;;;;;;;;;16.72;64.06;97441.81;2093644;28;19928;-48
2022/11/17 04:17:42;;;;;;;;;;;;;;;16.70;64.18;97442.03;2095108;28;19924;-46
2022/11/17 04:18:44;;;;;;;;;;;;;;;16.70;64.06;97450.03;2091627;28;19931;-46
2022/11/17 04:19:44;;;;;;;;;;;;;;;16.71;64.06;97448.19;2093364;28;20397;-46
2022/11/17 04:20:49;;;;;;;;;;;;;;;16.69;64.12;97437.72;2094511;28;19935;-46
2022/11/17 04:21:51;;;;;;;;;;;;;;;16.71;64.13;97443.63;2093329;28;19928;-49
2022/11/17 04:23:05;;;;;;;;;;;;;;;16.70;64.09;97444.69;2086758;28;19958;-45
2022/11/17 04:24:08;;;;;;;;;;;;;;;16.70;64.09;97444.69;2084700;28;20375;-48
2022/11/17 04:25:08;;;;;;;;;;;;;;;16.71;64.06;97448.19;2083684;28;20551;-47
2022/11/17 04:28:49;;;;;;;;;;;;;;;16.66;64.17;97440.84;2084445;28;19929;-48
2022/11/17 04:29:49;;;;;;;;;;;;;;;16.68;64.04;97446.75;2086626;28;20706;-46
2022/11/17 04:30:51;;;;;;;;;;;;;;;16.68;64.17;97452.13;2087999;28;19920;-47
2022/11/17 04:31:54;;;;;;;;;;;;;;;16.67;64.19;97447.81;2086380;28;19932;-46
2022/11/17 04:32:55;;;;;;;;;;;;;;;16.69;64.16;97458.31;2085965;28;19940;-45
2022/11/17 04:33:57;;;;;;;;;;;;;;;16.68;64.10;97456.66;2084991;28;19924;-46
2022/11/17 04:34:58;;;;;;;;;;;;;;;16.67;64.10;97455.03;2085384;28;19924;-46
2022/11/17 04:36:00;;;;;;;;;;;;;;;16.67;64.11;97458.53;2085950;28;19940;-48
2022/11/17 04:37:01;;;;;;;;;;;;;;;16.66;64.13;97456.91;2084354;28;19920;-54
2022/11/17 04:38:02;;;;;;;;;;;;;;;16.65;64.23;97457.09;2084776;28;19924;-46
2022/11/17 04:39:03;;;;;;;;;;;;;;;16.64;64.04;97460.81;2085362;28;19920;-45
2022/11/17 04:40:05;;;;;;;;;;;;;;;16.64;64.24;97455.47;2084359;28;19927;-48
2022/11/17 04:42:26;;;;;;;;;;;;;;;16.61;64.33;97462.09;2061910;28;19926;-47
2022/11/17 04:43:27;;;;;;;;;;;;;;;16.62;64.22;97452.19;2090543;28;20572;-46
2022/11/17 04:44:29;;;;;;;;;;;;;;;16.61;64.32;97462.09;2096185;28;19972;-46
2022/11/17 04:45:32;;;;;;;;;;;;;;;16.61;64.26;97462.09;2094723;28;19920;-45
2022/11/17 04:46:35;;;;;;;;;;;;;;;16.61;64.16;97461.28;2094657;28;19925;-45
2022/11/17 04:47:38;;;;;;;;;;;;;;;16.61;64.26;97466.63;2096361;28;19931;-45
2022/11/17 04:48:39;;;;;;;;;;;;;;;16.60;64.43;97468.47;2093174;28;20571;-45
2022/11/17 04:49:40;;;;;;;;;;;;;;;16.59;64.29;97464.16;2096222;28;19926;-48
2022/11/17 04:50:41;;;;;;;;;;;;;;;16.60;64.34;97463.09;2098109;28;20022;-47
2022/11/17 04:51:42;;;;;;;;;;;;;;;16.59;64.25;97463.34;2097207;28;20479;-46
2022/11/17 04:52:43;;;;;;;;;;;;;;;16.58;64.30;97465.19;2091897;28;19925;-44
2022/11/17 04:53:45;;;;;;;;;;;;;;;16.57;64.34;97460.06;2095521;28;20057;-47
2022/11/17 04:54:46;;;;;;;;;;;;;;;16.56;64.39;97464.59;2097107;28;19924;-46
2022/11/17 04:55:47;;;;;;;;;;;;;;;16.57;64.24;97462.72;2094170;28;19931;-47
2022/11/17 04:56:48;;;;;;;;;;;;;;;16.56;64.34;97467.28;2098552;28;20527;-47
2022/11/17 04:57:49;;;;;;;;;;;;;;;16.56;64.27;97464.59;2095573;28;19927;-48
2022/11/17 04:58:51;;;;;;;;;;;;;;;16.56;64.33;97469.94;2097200;28;19921;-45
2022/11/17 04:59:51;;;;;;;;;;;;;;;16.56;64.43;97459.25;2097086;28;19935;-49
2022/11/17 05:00:53;;;;;;;;;;;;;;;16.57;64.24;97454.69;2093662;28;19920;-45
2022/11/17 05:01:55;;;;;;;;;;;;;;;16.55;64.32;97457.63;2094053;28;19935;-44
2022/11/17 05:02:57;;;;;;;;;;;;;;;16.56;64.41;97453.88;2095094;28;19920;-48
2022/11/17 05:03:59;;;;;;;;;;;;;;;16.56;64.32;97464.59;2095055;28;19924;-47
2022/11/17 05:04:59;;;;;;;;;;;;;;;16.53;64.39;97465.84;2093766;28;19920;-47
2022/11/17 05:06:01;;;;;;;;;;;;;;;16.53;64.25;97465.03;2094883;28;19924;-45
2022/11/17 05:07:02;;;;;;;;;;;;;;;16.56;64.22;97469.94;2089708;28;19919;-45
2022/11/17 05:08:03;;;;;;;;;;;;;;;16.57;64.17;97471.56;2092479;28;19927;-47
2022/11/17 05:09:05;;;;;;;;;;;;;;;16.62;64.18;97468.25;2088145;28;19935;-47
2022/11/17 05:10:07;;;;;;;;;;;;;;;16.65;63.99;97470.50;2083099;28;20780;-48
2022/11/17 05:13:47;;;;;;;;;;;;;;;16.79;63.87;97464.00;2084310;28;19928;-49
2022/11/17 05:14:49;;;;;;;;;;;;;;;16.87;63.66;97460.22;2084893;28;20367;-46
2022/11/17 05:17:10;;;;;;;;;;;;;;;16.94;63.74;97461.00;2087299;28;19928;-48
2022/11/17 05:18:11;;;;;;;;;;;;;;;16.96;63.60;97459.72;2082714;28;19924;-47
2022/11/17 05:19:15;;;;;;;;;;;;;;;17.00;63.49;97465.47;2082638;28;19924;-46
2022/11/17 05:20:16;;;;;;;;;;;;;;;17.04;63.49;97463.97;2086972;28;19931;-45
2022/11/17 05:21:18;;;;;;;;;;;;;;;17.08;63.42;97469.72;2089569;28;19921;-47
2022/11/17 05:23:54;;;;;;;;;;;;;;;17.13;63.34;97465.34;2089079;28;19920;-48
2022/11/17 05:24:56;;;;;;;;;;;;;;;17.15;63.36;97463.22;2088241;28;20409;-47
2022/11/17 05:25:57;;;;;;;;;;;;;;;17.18;63.40;97462.78;2088445;28;23450;-44
2022/11/17 05:26:58;;;;;;;;;;;;;;;17.23;63.21;97469.34;2086735;28;19931;-48
2022/11/17 05:27:59;;;;;;;;;;;;;;;17.23;63.30;97464.81;2084093;28;20394;-50
2022/11/17 05:29:01;;;;;;;;;;;;;;;17.26;63.26;97463.53;2085086;28;20359;-46
2022/11/17 05:30:03;;;;;;;;;;;;;;;17.28;63.32;97461.47;2084922;28;19927;-47
2022/11/17 05:31:05;;;;;;;;;;;;;;;17.30;63.22;97462.03;2088620;28;19935;-47
2022/11/17 05:32:05;;;;;;;;;;;;;;;17.32;63.26;97457.28;2086208;28;20047;-51
2022/11/17 05:33:07;;;;;;;;;;;;;;;17.34;63.26;97458.69;2087709;28;19932;-50
2022/11/17 05:34:11;;;;;;;;;;;;;;;17.38;63.25;97451.03;2087004;28;19924;-44
2022/11/17 05:35:12;;;;;;;;;;;;;;;17.41;63.04;97454.09;2083964;28;19924;-47
2022/11/17 05:36:13;;;;;;;;;;;;;;;17.44;63.02;97460.88;2085400;28;19947;-51
2022/11/17 05:37:15;;;;;;;;;;;;;;;17.47;63.13;97455.06;2085459;28;19928;-44
2022/11/17 05:38:15;;;;;;;;;;;;;;;17.49;62.84;97463.66;2085278;28;19921;-48
2022/11/17 05:39:17;;;;;;;;;;;;;;;17.50;63.24;97453.78;2090954;28;19969;-45
2022/11/17 05:40:18;;;;;;;;;;;;;;;17.49;63.05;97458.31;2087838;28;19935;-48
2022/11/17 05:41:20;;;;;;;;;;;;;;;17.55;62.93;97460.13;2084612;28;19934;-47
2022/11/17 05:42:21;;;;;;;;;;;;;;;17.56;62.96;97464.41;2085206;28;19936;-47
2022/11/17 05:43:22;;;;;;;;;;;;;;;17.57;63.05;97465.22;2088196;28;19946;-49
2022/11/17 05:44:23;;;;;;;;;;;;;;;17.60;63.08;97465.59;2087600;28;19929;-46
2022/11/17 05:45:24;;;;;;;;;;;;;;;17.63;63.02;97462.50;2092469;28;19967;-48
2022/11/17 05:46:25;;;;;;;;;;;;;;;17.62;63.03;97471.56;2082563;28;19920;-47
2022/11/17 05:47:27;;;;;;;;;;;;;;;17.64;63.08;97471.34;2089365;28;20279;-45
2022/11/17 05:48:27;;;;;;;;;;;;;;;17.68;62.78;97471.72;2084690;28;19928;-47
2022/11/17 05:49:30;;;;;;;;;;;;;;;17.71;62.72;97469.38;2087034;28;20266;-46
2022/11/17 05:50:31;;;;;;;;;;;;;;;17.73;62.83;97467.31;2084904;28;19942;-48
2022/11/17 05:51:32;;;;;;;;;;;;;;;17.76;62.89;97466.03;2086879;28;19928;-47
2022/11/17 05:52:33;;;;;;;;;;;;;;;17.77;62.71;97467.66;2088290;28;19920;-46
2022/11/17 05:53:35;;;;;;;;;;;;;;;17.81;62.73;97466.22;2086681;28;20035;-44